createdAt,value
2023-02-14T00:00:31.701Z,1021.33
2023-02-14T00:01:03.015Z,1021.54
2023-02-14T00:01:35.102Z,1021.43
2023-02-14T00:02:07.073Z,1021.43
2023-02-14T00:02:35.459Z,1021.43
2023-02-14T00:02:55.110Z,1021.43
2023-02-14T00:03:27.710Z,1021.43
2023-02-14T00:03:59.291Z,1021.43
2023-02-14T00:04:31.994Z,1021.43
2023-02-14T00:05:03.153Z,1021.43
2023-02-14T00:05:35.822Z,1021.33
2023-02-14T00:06:07.072Z,1021.33
2023-02-14T00:06:35.518Z,1021.43
2023-02-14T00:06:55.118Z,1021.43
2023-02-14T00:07:26.988Z,1021.43
2023-02-14T00:07:59.694Z,1021.54
2023-02-14T00:08:30.985Z,1021.54
2023-02-14T00:09:04.206Z,1021.54
2023-02-14T00:09:33.369Z,1021.54
2023-02-14T00:09:51.017Z,1021.54
2023-02-14T00:10:23.186Z,1021.54
2023-02-14T00:10:40.105Z,1021.43
2023-02-14T00:11:11.802Z,1021.43
2023-02-14T00:11:33.803Z,1021.23
2023-02-14T00:11:58.983Z,1021.23
2023-02-14T00:12:30.985Z,1021.23
2023-02-14T00:13:03.787Z,1021.54
2023-02-14T00:13:33.176Z,1021.54
2023-02-14T00:13:51.045Z,1021.54
2023-02-14T00:14:23.014Z,1021.54
2023-02-14T00:14:40.146Z,1021.33
2023-02-14T00:15:12.378Z,1021.33
2023-02-14T00:15:33.194Z,1021.43
2023-02-14T00:15:59.263Z,1021.43
2023-02-14T00:16:31.136Z,1021.43
2023-02-14T00:17:02.997Z,1021.33
2023-02-14T00:17:33.591Z,1021.33
2023-02-14T00:17:50.968Z,1021.33
2023-02-14T00:18:23.765Z,1021.33
2023-02-14T00:18:40.898Z,1021.33
2023-02-14T00:19:10.950Z,1021.33
2023-02-14T00:19:33.140Z,1021.33
2023-02-14T00:19:59.001Z,1021.33
2023-02-14T00:20:31.958Z,1021.33
2023-02-14T00:21:03.027Z,1021.03
2023-02-14T00:21:34.002Z,1021.43
2023-02-14T00:22:07.085Z,1021.43
2023-02-14T00:22:33.175Z,1021.33
2023-02-14T00:22:55.123Z,1021.33
2023-02-14T00:23:27.033Z,1021.33
2023-02-14T00:23:59.870Z,1021.23
2023-02-14T00:24:31.016Z,1021.23
2023-02-14T00:25:03.999Z,1021.33
2023-02-14T00:25:33.178Z,1021.33
2023-02-14T00:25:51.204Z,1021.33
2023-02-14T00:26:22.978Z,1021.33
2023-02-14T00:26:40.630Z,1021.13
2023-02-14T00:27:12.149Z,1021.13
2023-02-14T00:27:33.188Z,1021.33
2023-02-14T00:27:58.995Z,1021.33
2023-02-14T00:28:31.018Z,1021.33
2023-02-14T00:29:20.112Z,1021.23
2023-02-14T00:29:51.102Z,1021.33
2023-02-14T00:30:24.056Z,1021.33
2023-02-14T00:30:41.055Z,1021.43
2023-02-14T00:31:11.163Z,1021.43
2023-02-14T00:31:33.289Z,1021.23
2023-02-14T00:31:59.122Z,1021.23
2023-02-14T00:32:31.743Z,1021.23
2023-02-14T00:33:03.076Z,1021.33
2023-02-14T00:33:34.705Z,1021.23
2023-02-14T00:34:07.134Z,1021.23
2023-02-14T00:34:33.209Z,1021.23
2023-02-14T00:34:55.064Z,1021.23
2023-02-14T00:35:27.145Z,1021.23
2023-02-14T00:35:59.865Z,1021.43
2023-02-14T00:36:31.019Z,1021.43
2023-02-14T00:37:03.778Z,1021.23
2023-02-14T00:37:33.202Z,1021.43
2023-02-14T00:37:51.061Z,1021.43
2023-02-14T00:38:22.981Z,1021.43
2023-02-14T00:38:40.136Z,1021.33
2023-02-14T00:39:12.151Z,1021.33
2023-02-14T00:39:33.170Z,1021.33
2023-02-14T00:39:59.033Z,1021.33
2023-02-14T00:40:31.238Z,1021.33
2023-02-14T00:41:03.072Z,1021.43
2023-02-14T00:41:33.273Z,1021.33
2023-02-14T00:41:50.969Z,1021.33
2023-02-14T00:42:23.781Z,1021.33
2023-02-14T00:42:40.965Z,1021.33
2023-02-14T00:43:11.033Z,1021.33
2023-02-14T00:43:33.304Z,1021.13
2023-02-14T00:43:59.001Z,1021.13
2023-02-14T00:44:32.125Z,1021.13
2023-02-14T00:45:03.417Z,1021.43
2023-02-14T00:45:34.546Z,1021.23
2023-02-14T00:45:51.068Z,1021.23
2023-02-14T00:46:23.066Z,1021.23
2023-02-14T00:46:40.838Z,1021.13
2023-02-14T00:47:10.975Z,1021.13
2023-02-14T00:47:33.845Z,1021.33
2023-02-14T00:47:59.041Z,1021.33
2023-02-14T00:48:31.056Z,1021.33
2023-02-14T00:49:03.727Z,1021.23
2023-02-14T00:49:33.167Z,1021.33
2023-02-14T00:49:51.066Z,1021.33
2023-02-14T00:50:23.164Z,1021.33
2023-02-14T00:50:40.144Z,1021.33
2023-02-14T00:51:11.808Z,1021.33
2023-02-14T00:51:33.177Z,1021.33
2023-02-14T00:51:59.192Z,1021.33
2023-02-14T00:52:31.005Z,1021.33
2023-02-14T00:53:03.007Z,1021.13
2023-02-14T00:53:33.203Z,1021.33
2023-02-14T00:53:51.245Z,1021.33
2023-02-14T00:54:23.780Z,1021.33
2023-02-14T00:54:40.964Z,1021.23
2023-02-14T00:55:11.366Z,1021.23
2023-02-14T00:55:33.205Z,1021.13
2023-02-14T00:55:59.221Z,1021.13
2023-02-14T00:56:31.801Z,1021.13
2023-02-14T00:57:03.066Z,1021.23
2023-02-14T00:57:33.993Z,1021.33
2023-02-14T00:58:07.080Z,1021.33
2023-02-14T00:58:33.174Z,1021.13
2023-02-14T00:58:55.021Z,1021.13
2023-02-14T00:59:27.030Z,1021.13
2023-02-14T00:59:59.798Z,1021.13
2023-02-14T01:00:31.280Z,1021.13
2023-02-14T01:01:03.893Z,1021.33
2023-02-14T01:01:33.187Z,1021.23
2023-02-14T01:01:51.026Z,1021.23
2023-02-14T01:02:23.103Z,1021.23
2023-02-14T01:02:40.249Z,1021.13
2023-02-14T01:03:12.118Z,1021.13
2023-02-14T01:03:33.161Z,1021.03
2023-02-14T01:03:59.029Z,1021.03
2023-02-14T01:04:31.083Z,1021.03
2023-02-14T01:05:03.315Z,1021.23
2023-02-14T01:05:33.244Z,1021.13
2023-02-14T01:05:51.140Z,1021.13
2023-02-14T01:06:23.813Z,1021.13
2023-02-14T01:06:41.003Z,1021.13
2023-02-14T01:07:11.033Z,1021.13
2023-02-14T01:07:33.178Z,1021.23
2023-02-14T01:07:59.060Z,1021.23
2023-02-14T01:08:31.871Z,1021.23
2023-02-14T01:09:02.988Z,1021.33
2023-02-14T01:09:34.968Z,1021.13
2023-02-14T01:10:07.279Z,1021.13
2023-02-14T01:10:33.262Z,1021.03
2023-02-14T01:10:55.181Z,1021.03
2023-02-14T01:11:29.311Z,1021.03
2023-02-14T01:11:59.053Z,1020.93
2023-02-14T01:12:31.096Z,1020.93
2023-02-14T01:13:03.831Z,1021.33
2023-02-14T01:13:33.201Z,1021.03
2023-02-14T01:13:51.014Z,1021.03
2023-02-14T01:14:23.005Z,1021.03
2023-02-14T01:14:40.130Z,1020.83
2023-02-14T01:15:12.418Z,1020.83
2023-02-14T01:15:33.190Z,1021.13
2023-02-14T01:15:59.250Z,1021.13
2023-02-14T01:16:31.108Z,1021.13
2023-02-14T01:17:03.074Z,1021.03
2023-02-14T01:17:33.518Z,1021.13
2023-02-14T01:17:51.030Z,1021.13
2023-02-14T01:18:23.841Z,1021.13
2023-02-14T01:18:40.943Z,1020.93
2023-02-14T01:19:11.024Z,1020.93
2023-02-14T01:19:33.196Z,1020.93
2023-02-14T01:19:59.016Z,1020.93
2023-02-14T01:20:31.966Z,1020.93
2023-02-14T01:21:03.128Z,1021.13
2023-02-14T01:21:34.027Z,1021.13
2023-02-14T01:22:07.167Z,1021.13
2023-02-14T01:22:33.209Z,1021.13
2023-02-14T01:22:55.072Z,1021.13
2023-02-14T01:23:27.061Z,1021.13
2023-02-14T01:23:59.989Z,1021.03
2023-02-14T01:24:31.115Z,1021.03
2023-02-14T01:25:03.963Z,1021.03
2023-02-14T01:25:33.250Z,1021.13
2023-02-14T01:25:51.263Z,1021.13
2023-02-14T01:26:23.058Z,1021.13
2023-02-14T01:26:40.174Z,1021.03
2023-02-14T01:27:11.754Z,1021.03
2023-02-14T01:27:33.805Z,1020.93
2023-02-14T01:27:59.099Z,1020.93
2023-02-14T01:28:31.060Z,1020.93
2023-02-14T01:29:03.110Z,1021.03
2023-02-14T01:29:33.756Z,1021.03
2023-02-14T01:29:51.150Z,1021.03
2023-02-14T01:30:24.159Z,1021.03
2023-02-14T01:30:41.007Z,1020.83
2023-02-14T01:31:11.290Z,1020.83
2023-02-14T01:31:33.320Z,1020.83
2023-02-14T01:31:59.100Z,1020.83
2023-02-14T01:32:31.874Z,1020.83
2023-02-14T01:33:03.104Z,1021.03
2023-02-14T01:33:33.885Z,1021.13
2023-02-14T01:33:51.045Z,1021.13
2023-02-14T01:34:23.047Z,1021.13
2023-02-14T01:34:40.964Z,1021.13
2023-02-14T01:35:11.178Z,1021.13
2023-02-14T01:35:33.245Z,1021.03
2023-02-14T01:35:59.226Z,1021.03
2023-02-14T01:36:31.161Z,1021.03
2023-02-14T01:37:03.855Z,1021.03
2023-02-14T01:37:33.230Z,1020.83
2023-02-14T01:37:51.039Z,1020.83
2023-02-14T01:38:23.054Z,1020.83
2023-02-14T01:38:40.199Z,1020.83
2023-02-14T01:39:11.727Z,1020.83
2023-02-14T01:39:33.586Z,1020.93
2023-02-14T01:39:59.442Z,1020.93
2023-02-14T01:40:31.216Z,1020.93
2023-02-14T01:41:03.114Z,1020.83
2023-02-14T01:41:33.237Z,1020.93
2023-02-14T01:41:51.134Z,1020.93
2023-02-14T01:42:23.843Z,1020.93
2023-02-14T01:42:40.996Z,1021.03
2023-02-14T01:43:11.035Z,1021.03
2023-02-14T01:43:33.218Z,1021.13
2023-02-14T01:43:59.097Z,1021.13
2023-02-14T01:44:31.803Z,1021.13
2023-02-14T01:45:03.344Z,1020.93
2023-02-14T01:45:34.853Z,1020.83
2023-02-14T01:46:07.146Z,1020.83
2023-02-14T01:46:33.201Z,1021.03
2023-02-14T01:46:55.071Z,1021.03
2023-02-14T01:47:27.077Z,1021.03
2023-02-14T01:47:59.801Z,1020.83
2023-02-14T01:48:31.172Z,1020.83
2023-02-14T01:49:03.909Z,1020.83
2023-02-14T01:49:33.264Z,1020.93
2023-02-14T01:49:51.106Z,1020.93
2023-02-14T01:50:23.268Z,1020.93
2023-02-14T01:50:40.262Z,1021.03
2023-02-14T01:51:11.780Z,1021.03
2023-02-14T01:51:33.249Z,1021.13
2023-02-14T01:51:59.034Z,1021.13
2023-02-14T01:52:31.078Z,1021.13
2023-02-14T01:53:03.115Z,1020.93
2023-02-14T01:53:33.191Z,1020.72
2023-02-14T01:53:51.029Z,1020.72
2023-02-14T01:54:23.995Z,1020.72
2023-02-14T01:54:41.026Z,1020.93
2023-02-14T01:55:11.206Z,1020.93
2023-02-14T01:55:33.770Z,1021.03
2023-02-14T01:55:59.161Z,1021.03
2023-02-14T01:56:31.778Z,1021.03
2023-02-14T01:57:03.099Z,1021.13
2023-02-14T01:57:34.025Z,1021.13
2023-02-14T01:57:51.088Z,1021.13
2023-02-14T01:58:23.060Z,1021.13
2023-02-14T01:58:41.003Z,1020.83
2023-02-14T01:59:11.036Z,1020.83
2023-02-14T01:59:33.210Z,1020.93
2023-02-14T01:59:59.291Z,1020.93
2023-02-14T02:00:31.305Z,1020.93
2023-02-14T02:01:04.201Z,1020.93
2023-02-14T02:01:33.294Z,1020.83
2023-02-14T02:01:51.157Z,1020.83
2023-02-14T02:02:23.147Z,1020.83
2023-02-14T02:02:40.339Z,1021.13
2023-02-14T02:03:11.873Z,1021.13
2023-02-14T02:03:33.275Z,1020.93
2023-02-14T02:03:59.040Z,1020.93
2023-02-14T02:04:31.392Z,1020.93
2023-02-14T02:05:03.273Z,1021.03
2023-02-14T02:05:33.250Z,1021.03
2023-02-14T02:05:51.206Z,1021.03
2023-02-14T02:06:23.883Z,1021.03
2023-02-14T02:06:41.057Z,1021.23
2023-02-14T02:07:11.054Z,1021.23
2023-02-14T02:07:33.173Z,1020.93
2023-02-14T02:07:59.072Z,1020.93
2023-02-14T02:08:31.883Z,1020.93
2023-02-14T02:09:03.085Z,1020.83
2023-02-14T02:09:34.035Z,1020.93
2023-02-14T02:10:07.320Z,1020.93
2023-02-14T02:10:33.235Z,1020.93
2023-02-14T02:10:55.176Z,1020.93
2023-02-14T02:11:27.116Z,1020.93
2023-02-14T02:11:59.064Z,1020.62
2023-02-14T02:12:31.163Z,1020.62
2023-02-14T02:13:03.885Z,1021.13
2023-02-14T02:13:33.227Z,1020.83
2023-02-14T02:13:51.176Z,1020.83
2023-02-14T02:14:23.064Z,1020.83
2023-02-14T02:14:40.196Z,1020.93
2023-02-14T02:15:12.105Z,1020.93
2023-02-14T02:15:33.239Z,1021.03
2023-02-14T02:15:59.202Z,1021.03
2023-02-14T02:16:31.198Z,1021.03
2023-02-14T02:17:03.145Z,1020.93
2023-02-14T02:17:33.634Z,1020.93
2023-02-14T02:17:51.060Z,1020.93
2023-02-14T02:18:23.836Z,1020.93
2023-02-14T02:18:41.023Z,1020.93
2023-02-14T02:19:11.095Z,1020.93
2023-02-14T02:19:33.215Z,1020.93
2023-02-14T02:19:59.340Z,1020.93
2023-02-14T02:20:32.017Z,1020.93
2023-02-14T02:21:19.112Z,1021.13
2023-02-14T02:21:51.057Z,1021.13
2023-02-14T02:22:23.136Z,1021.13
2023-02-14T02:22:41.004Z,1021.03
2023-02-14T02:23:11.080Z,1021.03
2023-02-14T02:23:33.281Z,1020.93
2023-02-14T02:23:59.111Z,1020.93
2023-02-14T02:24:31.089Z,1020.93
2023-02-14T02:25:03.915Z,1020.93
2023-02-14T02:25:33.205Z,1020.93
2023-02-14T02:25:51.278Z,1020.93
2023-02-14T02:26:23.075Z,1020.93
2023-02-14T02:26:40.191Z,1020.93
2023-02-14T02:27:11.763Z,1020.93
2023-02-14T02:27:33.909Z,1020.93
2023-02-14T02:27:59.052Z,1020.93
2023-02-14T02:28:31.123Z,1020.93
2023-02-14T02:29:03.199Z,1020.93
2023-02-14T02:29:34.042Z,1020.93
2023-02-14T02:29:51.178Z,1020.93
2023-02-14T02:30:24.167Z,1020.93
2023-02-14T02:30:41.201Z,1020.83
2023-02-14T02:31:11.178Z,1020.83
2023-02-14T02:31:33.336Z,1020.83
2023-02-14T02:31:59.482Z,1020.83
2023-02-14T02:32:31.887Z,1020.83
2023-02-14T02:33:03.143Z,1020.72
2023-02-14T02:33:34.088Z,1020.93
2023-02-14T02:33:51.107Z,1020.93
2023-02-14T02:34:23.131Z,1020.93
2023-02-14T02:34:41.076Z,1020.83
2023-02-14T02:35:11.265Z,1020.83
2023-02-14T02:35:33.268Z,1020.83
2023-02-14T02:35:59.314Z,1020.83
2023-02-14T02:36:31.123Z,1020.83
2023-02-14T02:37:03.891Z,1020.93
2023-02-14T02:37:33.706Z,1021.03
2023-02-14T02:37:51.104Z,1021.03
2023-02-14T02:38:23.152Z,1021.03
2023-02-14T02:38:40.872Z,1020.72
2023-02-14T02:39:11.870Z,1020.72
2023-02-14T02:39:33.203Z,1020.83
2023-02-14T02:39:59.176Z,1020.83
2023-02-14T02:40:31.232Z,1020.83
2023-02-14T02:41:03.165Z,1020.93
2023-02-14T02:41:33.272Z,1020.93
2023-02-14T02:41:51.188Z,1020.93
2023-02-14T02:42:23.874Z,1020.93
2023-02-14T02:42:41.025Z,1020.72
2023-02-14T02:43:11.183Z,1020.72
2023-02-14T02:43:33.230Z,1020.93
2023-02-14T02:43:59.382Z,1020.93
2023-02-14T02:44:31.776Z,1020.93
2023-02-14T02:45:03.538Z,1020.62
2023-02-14T02:45:34.627Z,1020.72
2023-02-14T02:45:51.293Z,1020.72
2023-02-14T02:46:23.206Z,1020.72
2023-02-14T02:46:41.000Z,1020.72
2023-02-14T02:47:11.105Z,1020.72
2023-02-14T02:47:33.254Z,1020.83
2023-02-14T02:47:59.139Z,1020.83
2023-02-14T02:48:31.175Z,1020.83
2023-02-14T02:49:03.986Z,1020.83
2023-02-14T02:49:33.276Z,1020.72
2023-02-14T02:49:51.132Z,1020.72
2023-02-14T02:50:23.265Z,1020.72
2023-02-14T02:50:40.252Z,1020.83
2023-02-14T02:51:27.950Z,1020.83
2023-02-14T02:51:59.094Z,1020.72
2023-02-14T02:52:31.896Z,1020.72
2023-02-14T02:53:03.182Z,1020.83
2023-02-14T02:53:33.902Z,1020.93
2023-02-14T02:53:51.095Z,1020.93
2023-02-14T02:54:23.129Z,1020.93
2023-02-14T02:54:41.241Z,1020.72
2023-02-14T02:55:11.266Z,1020.72
2023-02-14T02:55:33.672Z,1020.83
2023-02-14T02:55:59.188Z,1020.83
2023-02-14T02:56:31.156Z,1020.83
2023-02-14T02:57:03.787Z,1020.83
2023-02-14T02:57:33.522Z,1020.72
2023-02-14T02:57:51.147Z,1020.72
2023-02-14T02:58:23.091Z,1020.72
2023-02-14T02:58:40.406Z,1020.72
2023-02-14T02:59:11.907Z,1020.72
2023-02-14T02:59:33.258Z,1020.93
2023-02-14T02:59:59.100Z,1020.93
2023-02-14T03:00:31.352Z,1020.93
2023-02-14T03:01:03.238Z,1020.72
2023-02-14T03:01:33.255Z,1020.72
2023-02-14T03:01:51.201Z,1020.72
2023-02-14T03:02:23.796Z,1020.72
2023-02-14T03:02:40.896Z,1020.62
2023-02-14T03:03:11.137Z,1020.62
2023-02-14T03:03:33.200Z,1020.72
2023-02-14T03:03:59.177Z,1020.72
2023-02-14T03:04:31.950Z,1020.72
2023-02-14T03:05:03.424Z,1020.93
2023-02-14T03:05:34.011Z,1020.62
2023-02-14T03:05:51.301Z,1020.62
2023-02-14T03:06:23.145Z,1020.62
2023-02-14T03:06:41.027Z,1020.83
2023-02-14T03:07:11.132Z,1020.83
2023-02-14T03:07:33.278Z,1020.62
2023-02-14T03:07:59.125Z,1020.62
2023-02-14T03:08:31.105Z,1020.62
2023-02-14T03:09:03.990Z,1020.83
2023-02-14T03:09:34.067Z,1020.72
2023-02-14T03:09:51.119Z,1020.72
2023-02-14T03:10:23.297Z,1020.72
2023-02-14T03:10:40.270Z,1020.62
2023-02-14T03:11:11.812Z,1020.62
2023-02-14T03:11:33.238Z,1020.83
2023-02-14T03:11:59.063Z,1020.83
2023-02-14T03:12:31.124Z,1020.83
2023-02-14T03:13:03.962Z,1020.62
2023-02-14T03:13:33.291Z,1020.62
2023-02-14T03:13:51.126Z,1020.62
2023-02-14T03:14:23.118Z,1020.62
2023-02-14T03:14:40.269Z,1020.93
2023-02-14T03:15:12.090Z,1020.93
2023-02-14T03:15:33.332Z,1020.72
2023-02-14T03:15:59.364Z,1020.72
2023-02-14T03:16:31.121Z,1020.72
2023-02-14T03:17:03.160Z,1020.62
2023-02-14T03:17:33.718Z,1020.72
2023-02-14T03:17:51.175Z,1020.72
2023-02-14T03:18:23.850Z,1020.72
2023-02-14T03:18:40.982Z,1020.83
2023-02-14T03:19:11.134Z,1020.83
2023-02-14T03:19:33.304Z,1020.83
2023-02-14T03:19:59.149Z,1020.83
2023-02-14T03:20:32.106Z,1020.83
2023-02-14T03:21:03.340Z,1020.83
2023-02-14T03:21:34.047Z,1020.72
2023-02-14T03:21:51.163Z,1020.72
2023-02-14T03:22:23.271Z,1020.72
2023-02-14T03:22:41.074Z,1020.62
2023-02-14T03:23:11.153Z,1020.62
2023-02-14T03:23:33.833Z,1020.72
2023-02-14T03:23:59.192Z,1020.72
2023-02-14T03:24:31.218Z,1020.72
2023-02-14T03:25:04.033Z,1020.72
2023-02-14T03:25:33.255Z,1020.83
2023-02-14T03:25:51.309Z,1020.83
2023-02-14T03:26:23.197Z,1020.83
2023-02-14T03:26:40.298Z,1020.72
2023-02-14T03:27:11.892Z,1020.72
2023-02-14T03:27:33.313Z,1020.83
2023-02-14T03:27:59.123Z,1020.83
2023-02-14T03:28:31.253Z,1020.83
2023-02-14T03:29:03.166Z,1020.72
2023-02-14T03:29:33.257Z,1020.62
2023-02-14T03:29:51.138Z,1020.62
2023-02-14T03:30:24.176Z,1020.62
2023-02-14T03:30:41.245Z,1020.62
2023-02-14T03:31:11.234Z,1020.62
2023-02-14T03:31:33.439Z,1020.62
2023-02-14T03:31:59.307Z,1020.62
2023-02-14T03:32:31.803Z,1020.62
2023-02-14T03:33:03.192Z,1020.83
2023-02-14T03:33:33.904Z,1020.83
2023-02-14T03:33:51.142Z,1020.83
2023-02-14T03:34:23.106Z,1020.83
2023-02-14T03:34:41.088Z,1020.72
2023-02-14T03:35:11.292Z,1020.72
2023-02-14T03:35:33.270Z,1020.72
2023-02-14T03:35:59.305Z,1020.72
2023-02-14T03:36:31.135Z,1020.72
2023-02-14T03:37:03.831Z,1020.83
2023-02-14T03:37:33.294Z,1020.83
2023-02-14T03:37:51.204Z,1020.83
2023-02-14T03:38:23.164Z,1020.83
2023-02-14T03:38:40.259Z,1020.83
2023-02-14T03:39:12.064Z,1020.83
2023-02-14T03:39:33.278Z,1020.62
2023-02-14T03:39:59.334Z,1020.62
2023-02-14T03:40:31.311Z,1020.62
2023-02-14T03:41:03.198Z,1020.62
2023-02-14T03:41:33.280Z,1020.83
2023-02-14T03:41:51.130Z,1020.83
2023-02-14T03:42:23.894Z,1020.83
2023-02-14T03:42:55.170Z,1020.72
2023-02-14T03:43:27.926Z,1020.72
2023-02-14T03:43:59.122Z,1020.72
2023-02-14T03:44:32.412Z,1020.72
2023-02-14T03:45:03.511Z,1020.83
2023-02-14T03:45:34.198Z,1020.83
2023-02-14T03:45:51.327Z,1020.83
2023-02-14T03:46:23.370Z,1020.83
2023-02-14T03:46:41.069Z,1020.93
2023-02-14T03:47:11.154Z,1020.93
2023-02-14T03:47:33.313Z,1020.72
2023-02-14T03:47:59.138Z,1020.72
2023-02-14T03:48:31.135Z,1020.72
2023-02-14T03:49:03.921Z,1020.83
2023-02-14T03:49:33.674Z,1020.62
2023-02-14T03:49:51.205Z,1020.62
2023-02-14T03:50:23.293Z,1020.62
2023-02-14T03:50:40.252Z,1020.72
2023-02-14T03:51:11.871Z,1020.72
2023-02-14T03:51:33.272Z,1020.93
2023-02-14T03:51:59.171Z,1020.93
2023-02-14T03:52:31.193Z,1020.93
2023-02-14T03:53:03.250Z,1020.93
2023-02-14T03:53:33.321Z,1020.52
2023-02-14T03:53:51.248Z,1020.52
2023-02-14T03:54:23.957Z,1020.52
2023-02-14T03:54:41.079Z,1020.93
2023-02-14T03:55:11.300Z,1020.93
2023-02-14T03:55:33.288Z,1020.83
2023-02-14T03:55:59.327Z,1020.83
2023-02-14T03:56:31.943Z,1020.83
2023-02-14T03:57:03.234Z,1020.93
2023-02-14T03:57:34.132Z,1020.62
2023-02-14T03:58:07.167Z,1020.62
2023-02-14T03:58:33.296Z,1020.93
2023-02-14T03:58:55.138Z,1020.93
2023-02-14T03:59:27.194Z,1020.93
2023-02-14T04:00:00.440Z,1020.72
2023-02-14T04:00:31.185Z,1020.72
2023-02-14T04:01:03.951Z,1020.72
2023-02-14T04:01:33.355Z,1020.72
2023-02-14T04:01:51.206Z,1020.72
2023-02-14T04:02:23.189Z,1020.72
2023-02-14T04:02:40.281Z,1020.72
2023-02-14T04:03:12.080Z,1020.72
2023-02-14T04:03:33.433Z,1020.83
2023-02-14T04:03:59.503Z,1020.83
2023-02-14T04:04:31.307Z,1020.83
2023-02-14T04:05:03.340Z,1020.72
2023-02-14T04:05:33.282Z,1020.93
2023-02-14T04:05:51.371Z,1020.93
2023-02-14T04:06:23.859Z,1020.93
2023-02-14T04:06:41.090Z,1020.83
2023-02-14T04:07:11.184Z,1020.83
2023-02-14T04:07:33.330Z,1020.62
2023-02-14T04:07:59.200Z,1020.62
2023-02-14T04:08:32.031Z,1020.62
2023-02-14T04:09:03.258Z,1020.62
2023-02-14T04:09:34.462Z,1020.62
2023-02-14T04:10:06.899Z,1020.62
2023-02-14T04:10:23.510Z,1020.62
2023-02-14T04:10:41.494Z,1020.83
2023-02-14T04:11:11.206Z,1020.83
2023-02-14T04:11:33.306Z,1020.62
2023-02-14T04:11:59.140Z,1020.62
2023-02-14T04:12:37.950Z,1020.62
2023-02-14T04:13:03.991Z,1020.93
2023-02-14T04:13:33.337Z,1020.83
2023-02-14T04:13:51.143Z,1020.83
2023-02-14T04:14:23.283Z,1020.83
2023-02-14T04:14:40.307Z,1020.62
2023-02-14T04:15:12.217Z,1020.62
2023-02-14T04:15:33.427Z,1020.72
2023-02-14T04:15:59.616Z,1020.72
2023-02-14T04:16:31.234Z,1020.72
2023-02-14T04:17:03.191Z,1020.83
2023-02-14T04:17:33.234Z,1020.72
2023-02-14T04:17:51.166Z,1020.72
2023-02-14T04:18:23.956Z,1020.72
2023-02-14T04:18:41.111Z,1020.42
2023-02-14T04:19:11.461Z,1020.42
2023-02-14T04:19:33.289Z,1020.62
2023-02-14T04:19:59.202Z,1020.62
2023-02-14T04:20:32.133Z,1020.62
2023-02-14T04:21:03.221Z,1020.62
2023-02-14T04:21:34.158Z,1020.72
2023-02-14T04:21:51.189Z,1020.72
2023-02-14T04:22:23.202Z,1020.72
2023-02-14T04:22:41.139Z,1020.72
2023-02-14T04:23:11.167Z,1020.72
2023-02-14T04:23:33.277Z,1020.62
2023-02-14T04:23:59.277Z,1020.62
2023-02-14T04:24:31.275Z,1020.62
2023-02-14T04:25:04.245Z,1020.83
2023-02-14T04:25:33.398Z,1020.72
2023-02-14T04:25:51.314Z,1020.72
2023-02-14T04:26:23.195Z,1020.72
2023-02-14T04:26:40.280Z,1020.83
2023-02-14T04:27:12.032Z,1020.83
2023-02-14T04:27:33.246Z,1020.62
2023-02-14T04:27:59.179Z,1020.62
2023-02-14T04:28:31.238Z,1020.62
2023-02-14T04:29:03.206Z,1020.93
2023-02-14T04:29:33.308Z,1020.83
2023-02-14T04:29:51.283Z,1020.83
2023-02-14T04:30:24.302Z,1020.83
2023-02-14T04:30:41.318Z,1020.62
2023-02-14T04:31:11.331Z,1020.62
2023-02-14T04:31:33.562Z,1020.72
2023-02-14T04:31:59.235Z,1020.72
2023-02-14T04:32:31.918Z,1020.72
2023-02-14T04:33:03.192Z,1020.83
2023-02-14T04:33:34.733Z,1020.62
2023-02-14T04:33:51.245Z,1020.62
2023-02-14T04:34:23.286Z,1020.62
2023-02-14T04:34:41.074Z,1020.72
2023-02-14T04:35:11.324Z,1020.72
2023-02-14T04:35:33.261Z,1020.72
2023-02-14T04:35:59.391Z,1020.72
2023-02-14T04:36:31.262Z,1020.72
2023-02-14T04:37:03.895Z,1020.52
2023-02-14T04:37:33.249Z,1020.72
2023-02-14T04:37:51.214Z,1020.72
2023-02-14T04:38:23.175Z,1020.72
2023-02-14T04:38:40.295Z,1020.72
2023-02-14T04:39:11.977Z,1020.72
2023-02-14T04:39:33.267Z,1020.72
2023-02-14T04:39:59.258Z,1020.72
2023-02-14T04:40:31.313Z,1020.72
2023-02-14T04:41:03.335Z,1020.72
2023-02-14T04:41:33.414Z,1020.62
2023-02-14T04:41:51.178Z,1020.62
2023-02-14T04:42:24.048Z,1020.62
2023-02-14T04:42:41.141Z,1020.83
2023-02-14T04:43:11.246Z,1020.83
2023-02-14T04:43:33.276Z,1020.72
2023-02-14T04:43:59.224Z,1020.72
2023-02-14T04:44:32.015Z,1020.72
2023-02-14T04:45:04.456Z,1020.72
2023-02-14T04:45:34.147Z,1020.72
2023-02-14T04:45:51.323Z,1020.72
2023-02-14T04:46:23.286Z,1020.72
2023-02-14T04:46:41.158Z,1020.72
2023-02-14T04:47:11.249Z,1020.72
2023-02-14T04:47:33.289Z,1020.83
2023-02-14T04:48:00.170Z,1020.83
2023-02-14T04:48:31.270Z,1020.83
2023-02-14T04:49:03.895Z,1020.83
2023-02-14T04:49:33.231Z,1020.72
2023-02-14T04:49:51.244Z,1020.72
2023-02-14T04:50:33.460Z,1020.62
2023-02-14T04:50:55.188Z,1020.62
2023-02-14T04:51:27.703Z,1020.62
2023-02-14T04:51:59.216Z,1020.72
2023-02-14T04:52:31.215Z,1020.72
2023-02-14T04:53:03.347Z,1020.62
2023-02-14T04:53:33.306Z,1020.32
2023-02-14T04:53:51.231Z,1020.32
2023-02-14T04:54:34.171Z,1020.62
2023-02-14T04:54:55.269Z,1020.62
2023-02-14T04:55:27.458Z,1020.62
2023-02-14T04:55:59.282Z,1020.52
2023-02-14T04:56:31.237Z,1020.52
2023-02-14T04:57:03.355Z,1020.52
2023-02-14T04:57:34.112Z,1020.62
2023-02-14T04:57:52.019Z,1020.62
2023-02-14T04:58:23.233Z,1020.62
2023-02-14T04:58:40.382Z,1020.52
2023-02-14T04:59:11.267Z,1020.52
2023-02-14T04:59:33.764Z,1020.62
2023-02-14T05:00:00.005Z,1020.62
2023-02-14T05:00:31.542Z,1020.62
2023-02-14T05:01:04.094Z,1020.52
2023-02-14T05:01:33.303Z,1020.52
2023-02-14T05:01:51.230Z,1020.52
2023-02-14T05:02:23.289Z,1020.52
2023-02-14T05:02:40.431Z,1020.42
2023-02-14T05:03:11.982Z,1020.42
2023-02-14T05:03:33.272Z,1020.62
2023-02-14T05:03:59.284Z,1020.62
2023-02-14T05:04:31.611Z,1020.62
2023-02-14T05:05:03.536Z,1020.72
2023-02-14T05:05:33.596Z,1020.62
2023-02-14T05:05:51.397Z,1020.62
2023-02-14T05:06:24.132Z,1020.62
2023-02-14T05:06:41.148Z,1020.52
2023-02-14T05:07:11.241Z,1020.52
2023-02-14T05:07:33.305Z,1020.42
2023-02-14T05:07:59.226Z,1020.42
2023-02-14T05:08:32.047Z,1020.42
2023-02-14T05:09:03.226Z,1020.52
2023-02-14T05:09:34.841Z,1020.42
2023-02-14T05:09:51.163Z,1020.42
2023-02-14T05:10:23.317Z,1020.42
2023-02-14T05:10:41.203Z,1020.42
2023-02-14T05:11:11.200Z,1020.42
2023-02-14T05:11:33.265Z,1020.42
2023-02-14T05:11:59.267Z,1020.42
2023-02-14T05:12:31.228Z,1020.42
2023-02-14T05:13:03.979Z,1020.42
2023-02-14T05:13:33.343Z,1020.62
2023-02-14T05:13:51.235Z,1020.62
2023-02-14T05:14:23.214Z,1020.62
2023-02-14T05:14:40.422Z,1020.62
2023-02-14T05:15:28.204Z,1020.62
2023-02-14T05:15:59.229Z,1020.62
2023-02-14T05:16:32.120Z,1020.62
2023-02-14T05:17:03.361Z,1020.32
2023-02-14T05:17:34.034Z,1020.62
2023-02-14T05:17:51.217Z,1020.62
2023-02-14T05:18:23.333Z,1020.62
2023-02-14T05:18:41.094Z,1020.52
2023-02-14T05:19:11.204Z,1020.52
2023-02-14T05:19:33.653Z,1020.42
2023-02-14T05:19:59.228Z,1020.42
2023-02-14T05:20:31.407Z,1020.42
2023-02-14T05:21:04.040Z,1020.32
2023-02-14T05:21:33.276Z,1020.62
2023-02-14T05:21:51.402Z,1020.62
2023-02-14T05:22:23.245Z,1020.62
2023-02-14T05:22:40.461Z,1020.42
2023-02-14T05:23:11.947Z,1020.42
2023-02-14T05:23:33.722Z,1020.42
2023-02-14T05:23:59.280Z,1020.42
2023-02-14T05:24:31.270Z,1020.42
2023-02-14T05:25:03.397Z,1020.42
2023-02-14T05:25:33.342Z,1020.42
2023-02-14T05:25:51.381Z,1020.42
2023-02-14T05:26:23.995Z,1020.42
2023-02-14T05:26:41.097Z,1020.32
2023-02-14T05:27:11.220Z,1020.32
2023-02-14T05:27:33.327Z,1020.32
2023-02-14T05:27:59.805Z,1020.32
2023-02-14T05:28:31.949Z,1020.32
2023-02-14T05:29:03.356Z,1020.42
2023-02-14T05:29:34.184Z,1020.42
2023-02-14T05:29:51.287Z,1020.42
2023-02-14T05:30:23.476Z,1020.42